Terminal Aerodrome Forecast
Issued by NWS Albany, NY

Home | Current Version | Previous Version | Text Only | Print | Product List | Glossary On
Versions: 1 2 3 4 5 6 7 8 9 10 11 12 13 14 15 16 17 18 19
000
FTUS41 KALY 301100
TAFPOU
TAF
KPOU 301120Z 3012/3112 VRB06KT 3SM -SN SCT010 OVC025
      TEMPO 3012/3016 1 1/2SM -SN BKN010
     FM301600 32009G19KT 3SM -SHSN BKN020 BKN030
     FM301900 32012G22KT P6SM VCSH BKN025 BKN035
     FM310000 31015G25KT P6SM SCT025 BKN035
     FM310500 32010G18KT P6SM SKC=

USA.gov is the U.S. government's official web portal to all federal, state and local government web resources and services.